createdAt,value
2019-05-15T00:00:38.708Z,58.64
2019-05-15T00:01:41.135Z,58.54
2019-05-15T00:02:38.741Z,58.54
2019-05-15T00:03:39.108Z,58.54
2019-05-15T00:04:38.346Z,58.64
2019-05-15T00:05:39.010Z,58.64
2019-05-15T00:06:39.131Z,58.23
2019-05-15T00:07:39.222Z,58.15
2019-05-15T00:08:38.728Z,58.46
2019-05-15T00:09:41.634Z,58.23
2019-05-15T00:10:38.886Z,58.77
2019-05-15T00:11:38.992Z,58.77
2019-05-15T00:12:39.468Z,58.98
2019-05-15T00:13:38.975Z,59.39
2019-05-15T00:14:38.879Z,59.29
2019-05-15T00:15:39.804Z,59.08
2019-05-15T00:16:38.590Z,59.39
2019-05-15T00:17:39.306Z,59.39
2019-05-15T00:18:39.086Z,59.39
2019-05-15T00:19:38.911Z,59.50
2019-05-15T00:20:39.397Z,59.80
2019-05-15T00:21:38.299Z,59.60
2019-05-15T00:22:38.874Z,59.19
2019-05-15T00:23:38.784Z,59.29
2019-05-15T00:24:38.149Z,59.39
2019-05-15T00:25:39.469Z,59.39
2019-05-15T00:26:38.537Z,59.50
2019-05-15T00:27:38.621Z,59.08
2019-05-15T00:28:38.839Z,60.01
2019-05-15T00:29:38.379Z,59.70
2019-05-15T00:30:38.710Z,60.32
2019-05-15T00:31:38.807Z,59.80
2019-05-15T00:32:39.249Z,59.39
2019-05-15T00:33:39.470Z,59.60
2019-05-15T00:34:37.911Z,59.29
2019-05-15T00:35:39.409Z,59.19
2019-05-15T00:36:38.251Z,59.39
2019-05-15T00:37:38.696Z,59.80
2019-05-15T00:38:39.118Z,60.01
2019-05-15T00:39:39.087Z,59.60
2019-05-15T00:40:39.220Z,60.11
2019-05-15T00:41:50.881Z,60.32
2019-05-15T00:42:38.685Z,59.91
2019-05-15T00:43:38.639Z,60.32
2019-05-15T00:44:38.714Z,59.80
2019-05-15T00:45:38.543Z,59.70
2019-05-15T00:46:38.422Z,60.11
2019-05-15T00:47:39.372Z,60.22
2019-05-15T00:48:39.490Z,60.53
2019-05-15T00:49:38.240Z,60.77
2019-05-15T00:50:39.026Z,60.77
2019-05-15T00:51:39.029Z,60.84
2019-05-15T00:52:39.073Z,60.53
2019-05-15T00:53:38.946Z,60.87
2019-05-15T00:54:38.891Z,60.56
2019-05-15T00:55:37.973Z,60.77
2019-05-15T00:56:38.953Z,61.28
2019-05-15T00:57:39.357Z,60.77
2019-05-15T00:58:37.022Z,60.77
2019-05-15T00:59:38.871Z,60.66
2019-05-15T01:00:38.122Z,61.80
2019-05-15T01:01:38.187Z,60.87
2019-05-15T01:02:38.779Z,60.87
2019-05-15T01:03:38.725Z,60.77
2019-05-15T01:04:38.937Z,60.77
2019-05-15T01:05:38.795Z,60.87
2019-05-15T01:06:38.945Z,61.28
2019-05-15T01:07:38.966Z,60.66
2019-05-15T01:08:39.056Z,62.01
2019-05-15T01:09:38.459Z,61.80
2019-05-15T01:10:38.574Z,61.38
2019-05-15T01:11:38.227Z,61.80
2019-05-15T01:12:38.000Z,61.38
2019-05-15T01:13:38.811Z,61.90
2019-05-15T01:14:38.576Z,62.11
2019-05-15T01:15:38.723Z,62.11
2019-05-15T01:16:38.329Z,62.32
2019-05-15T01:17:38.979Z,62.01
2019-05-15T01:18:38.488Z,62.66
2019-05-15T01:19:37.969Z,61.90
2019-05-15T01:20:38.926Z,61.83
2019-05-15T01:21:38.498Z,61.72
2019-05-15T01:22:39.048Z,61.52
2019-05-15T01:23:38.827Z,62.24
2019-05-15T01:24:38.746Z,61.93
2019-05-15T01:25:38.647Z,62.24
2019-05-15T01:26:38.515Z,61.93
2019-05-15T01:27:38.647Z,61.93
2019-05-15T01:28:38.401Z,62.35
2019-05-15T01:29:44.568Z,62.14
2019-05-15T01:30:39.369Z,61.49
2019-05-15T01:31:38.029Z,61.59
2019-05-15T01:32:39.113Z,61.59
2019-05-15T01:33:38.815Z,61.90
2019-05-15T01:34:38.424Z,61.72
2019-05-15T01:35:38.344Z,61.90
2019-05-15T01:36:38.243Z,62.45
2019-05-15T01:37:38.785Z,62.24
2019-05-15T01:38:38.636Z,62.04
2019-05-15T01:39:38.529Z,62.14
2019-05-15T01:40:38.479Z,61.72
2019-05-15T01:41:38.459Z,62.24
2019-05-15T01:42:38.647Z,61.93
2019-05-15T01:43:38.104Z,62.35
2019-05-15T01:44:38.801Z,62.24
2019-05-15T01:45:39.059Z,62.35
2019-05-15T01:46:39.101Z,62.45
2019-05-15T01:47:38.579Z,61.93
2019-05-15T01:48:38.686Z,62.87
2019-05-15T01:49:38.393Z,63.17
2019-05-15T01:50:38.690Z,62.97
2019-05-15T01:51:38.362Z,62.87
2019-05-15T01:52:38.661Z,63.17
2019-05-15T01:53:38.342Z,62.66
2019-05-15T01:54:38.369Z,62.87
2019-05-15T01:55:36.397Z,63.07
2019-05-15T01:56:38.570Z,63.28
2019-05-15T01:57:38.430Z,62.87
2019-05-15T01:58:38.221Z,62.76
2019-05-15T01:59:36.347Z,63.07
2019-05-15T02:00:38.585Z,63.38
2019-05-15T02:01:38.927Z,63.28
2019-05-15T02:02:38.653Z,63.07
2019-05-15T02:03:38.324Z,63.28
2019-05-15T02:04:36.304Z,63.07
2019-05-15T02:05:36.283Z,63.20
2019-05-15T02:06:38.904Z,63.51
2019-05-15T02:07:38.745Z,63.62
2019-05-15T02:08:38.965Z,63.41
2019-05-15T02:09:38.425Z,63.82
2019-05-15T02:10:38.781Z,63.82
2019-05-15T02:11:38.264Z,63.79
2019-05-15T02:12:38.485Z,63.72
2019-05-15T02:13:36.212Z,64.14
2019-05-15T02:14:36.193Z,64.45
2019-05-15T02:15:36.180Z,64.86
2019-05-15T02:16:36.163Z,64.76
2019-05-15T02:17:36.149Z,64.55
2019-05-15T02:18:36.168Z,64.65
2019-05-15T02:19:36.138Z,64.89
2019-05-15T02:20:38.612Z,64.79
2019-05-15T02:21:37.991Z,65.00
2019-05-15T02:22:36.108Z,65.83
2019-05-15T02:23:36.091Z,65.31
2019-05-15T02:24:36.082Z,65.62
2019-05-15T02:25:36.081Z,65.62
2019-05-15T02:26:36.057Z,66.03
2019-05-15T02:27:38.950Z,65.93
2019-05-15T02:28:38.178Z,66.14
2019-05-15T02:29:37.821Z,66.58
2019-05-15T02:30:39.654Z,65.96
2019-05-15T02:31:38.879Z,65.86
2019-05-15T02:32:39.102Z,66.38
2019-05-15T02:33:36.007Z,67.10
2019-05-15T02:34:39.195Z,66.89
2019-05-15T02:35:38.882Z,67.10
2019-05-15T02:36:35.952Z,67.13
2019-05-15T02:37:35.944Z,66.99
2019-05-15T02:38:35.944Z,67.03
2019-05-15T02:39:38.617Z,67.65
2019-05-15T02:40:35.902Z,67.24
2019-05-15T02:41:39.406Z,67.34
2019-05-15T02:42:35.898Z,67.65
2019-05-15T02:43:38.728Z,68.17
2019-05-15T02:44:35.877Z,68.38
2019-05-15T02:45:37.847Z,68.17
2019-05-15T02:46:39.152Z,67.96
2019-05-15T02:47:35.836Z,68.17
2019-05-15T02:48:35.818Z,67.86
2019-05-15T02:49:38.968Z,67.86
2019-05-15T02:50:38.813Z,68.59
2019-05-15T02:51:35.788Z,68.48
2019-05-15T02:52:38.825Z,68.38
2019-05-15T02:53:39.209Z,68.38
2019-05-15T02:54:35.744Z,68.69
2019-05-15T02:55:35.737Z,68.17
2019-05-15T02:56:38.956Z,69.00
2019-05-15T02:57:38.971Z,69.34
2019-05-15T02:58:35.723Z,69.52
2019-05-15T02:59:35.711Z,69.62
2019-05-15T03:00:43.984Z,69.76
2019-05-15T03:01:39.944Z,69.73
2019-05-15T03:02:35.653Z,69.62
2019-05-15T03:03:38.383Z,70.14
2019-05-15T03:04:35.664Z,69.83
2019-05-15T03:05:35.633Z,69.62
2019-05-15T03:06:38.624Z,70.38
2019-05-15T03:07:35.600Z,70.04
2019-05-15T03:08:35.606Z,70.25
2019-05-15T03:09:35.609Z,70.25
2019-05-15T03:10:35.585Z,70.25
2019-05-15T03:11:35.565Z,69.86
2019-05-15T03:12:35.540Z,70.28
2019-05-15T03:13:35.566Z,70.25
2019-05-15T03:14:35.548Z,70.35
2019-05-15T03:15:35.525Z,70.28
2019-05-15T03:16:35.522Z,70.04
2019-05-15T03:17:35.507Z,70.04
2019-05-15T03:18:35.495Z,69.62
2019-05-15T03:19:35.496Z,70.28
2019-05-15T03:20:38.630Z,70.14
2019-05-15T03:21:38.643Z,69.52
2019-05-15T03:22:35.457Z,69.73
2019-05-15T03:23:35.443Z,69.62
2019-05-15T03:24:35.427Z,70.04
2019-05-15T03:25:35.405Z,69.83
2019-05-15T03:26:35.391Z,70.04
2019-05-15T03:27:35.400Z,69.83
2019-05-15T03:28:38.740Z,69.52
2019-05-15T03:29:35.379Z,69.52
2019-05-15T03:31:07.071Z,69.52
2019-05-15T03:31:56.766Z,69.73
2019-05-15T03:32:50.747Z,69.62
2019-05-15T03:33:43.899Z,69.73
2019-05-15T03:34:44.592Z,69.62
2019-05-15T03:35:41.847Z,70.04
2019-05-15T03:36:36.312Z,69.73
2019-05-15T03:37:35.313Z,69.73
2019-05-15T03:38:35.267Z,69.69
2019-05-15T03:39:35.278Z,69.69
2019-05-15T03:40:35.254Z,69.79
2019-05-15T03:41:35.263Z,69.79
2019-05-15T03:42:35.235Z,69.48
2019-05-15T03:43:35.228Z,69.27
2019-05-15T03:44:35.208Z,69.69
2019-05-15T03:45:35.195Z,69.59
2019-05-15T03:46:35.177Z,68.96
2019-05-15T03:47:35.192Z,69.17
2019-05-15T03:48:35.166Z,68.96
2019-05-15T03:49:35.174Z,69.27
2019-05-15T03:50:35.145Z,69.07
2019-05-15T03:51:35.160Z,68.31
2019-05-15T03:52:35.113Z,68.62
2019-05-15T03:53:35.110Z,67.79
2019-05-15T03:54:35.113Z,67.90
2019-05-15T03:55:35.101Z,68.10
2019-05-15T03:56:35.068Z,67.66
2019-05-15T03:57:35.073Z,67.48
2019-05-15T03:58:35.048Z,67.66
2019-05-15T03:59:35.040Z,67.03
2019-05-15T04:00:35.044Z,67.03
2019-05-15T04:01:39.776Z,66.62
2019-05-15T04:02:38.988Z,67.03
2019-05-15T04:03:35.038Z,65.56
2019-05-15T04:04:34.992Z,65.77
2019-05-15T04:05:34.978Z,65.66
2019-05-15T04:06:34.969Z,66.80
2019-05-15T04:07:34.971Z,65.14
2019-05-15T04:08:34.960Z,65.77
2019-05-15T04:09:34.968Z,65.53
2019-05-15T04:10:34.923Z,65.04
2019-05-15T04:11:34.930Z,65.11
2019-05-15T04:12:34.915Z,64.59
2019-05-15T04:13:34.910Z,64.90
2019-05-15T04:14:34.890Z,64.39
2019-05-15T04:15:34.874Z,64.77
2019-05-15T04:16:34.880Z,64.18
2019-05-15T04:17:34.842Z,64.18
2019-05-15T04:18:34.834Z,63.46
2019-05-15T04:19:34.841Z,63.46
2019-05-15T04:20:34.839Z,63.66
2019-05-15T04:21:34.823Z,63.56
2019-05-15T04:22:34.796Z,63.76
2019-05-15T04:23:34.784Z,63.74
2019-05-15T04:24:34.786Z,64.04
2019-05-15T04:25:34.753Z,63.74
2019-05-15T04:26:34.747Z,63.84
2019-05-15T04:27:34.748Z,62.91
2019-05-15T04:28:34.722Z,63.12
2019-05-15T04:29:34.937Z,63.01
2019-05-15T04:30:34.703Z,63.64
2019-05-15T04:31:50.648Z,63.22
2019-05-15T04:32:35.684Z,63.74
2019-05-15T04:33:34.671Z,63.22
2019-05-15T04:34:34.657Z,63.43
2019-05-15T04:35:34.667Z,63.12
2019-05-15T04:36:34.634Z,63.12
2019-05-15T04:37:34.635Z,63.53
2019-05-15T04:38:34.613Z,63.53
2019-05-15T04:39:34.612Z,63.29
2019-05-15T04:40:34.612Z,62.46
2019-05-15T04:41:34.599Z,62.98
2019-05-15T04:42:34.576Z,63.40
2019-05-15T04:43:41.305Z,62.57
2019-05-15T04:44:35.555Z,62.77
2019-05-15T04:45:35.422Z,62.67
2019-05-15T04:46:34.537Z,62.13
2019-05-15T04:47:34.520Z,61.71
2019-05-15T04:48:34.505Z,62.02
2019-05-15T04:49:34.497Z,61.40
2019-05-15T04:50:34.495Z,61.58
2019-05-15T04:51:34.511Z,60.78
2019-05-15T04:52:34.468Z,61.58
2019-05-15T04:53:34.497Z,60.75
2019-05-15T04:54:34.446Z,60.73
2019-05-15T04:55:34.455Z,60.52
2019-05-15T04:56:34.413Z,60.63
2019-05-15T04:57:34.558Z,60.93
2019-05-15T04:58:34.412Z,60.52
2019-05-15T04:59:34.397Z,60.93
2019-05-15T05:00:34.417Z,59.77
2019-05-15T05:01:34.373Z,60.18
2019-05-15T05:02:34.355Z,59.67
2019-05-15T05:03:34.900Z,60.28
2019-05-15T05:04:34.327Z,59.36
2019-05-15T05:05:34.328Z,60.18
2019-05-15T05:06:34.322Z,59.33
2019-05-15T05:07:34.303Z,59.23
2019-05-15T05:08:34.282Z,59.23
2019-05-15T05:09:34.274Z,59.53
2019-05-15T05:10:34.282Z,59.33
2019-05-15T05:11:34.265Z,59.33
2019-05-15T05:12:34.249Z,59.09
2019-05-15T05:13:34.226Z,58.89
2019-05-15T05:14:34.215Z,59.51
2019-05-15T05:15:34.216Z,59.30
2019-05-15T05:16:34.201Z,57.96
2019-05-15T05:17:34.203Z,57.93
2019-05-15T05:18:34.182Z,58.14
2019-05-15T05:19:34.170Z,58.55
2019-05-15T05:20:34.155Z,58.01
2019-05-15T05:21:34.138Z,57.81
2019-05-15T05:22:34.137Z,58.11
2019-05-15T05:23:34.111Z,57.60
2019-05-15T05:24:34.107Z,57.91
2019-05-15T05:25:34.116Z,56.98
2019-05-15T05:26:34.094Z,57.60
2019-05-15T05:27:34.080Z,57.16
2019-05-15T05:28:34.065Z,57.68
2019-05-15T05:29:34.050Z,57.06
2019-05-15T05:30:34.060Z,56.75
2019-05-15T05:31:34.036Z,57.44
2019-05-15T05:32:35.246Z,57.16
2019-05-15T05:33:34.011Z,56.41
2019-05-15T05:34:34.001Z,57.03
2019-05-15T05:35:34.004Z,56.75
2019-05-15T05:36:33.992Z,56.54
2019-05-15T05:37:33.969Z,57.06
2019-05-15T05:38:33.965Z,57.03
2019-05-15T05:39:33.954Z,57.24
2019-05-15T05:40:33.942Z,56.21
2019-05-15T05:41:33.917Z,57.24
2019-05-15T05:42:33.912Z,55.69
2019-05-15T05:43:33.893Z,56.00
2019-05-15T05:44:33.898Z,56.00
2019-05-15T05:45:33.901Z,55.77
2019-05-15T05:46:33.888Z,55.77
2019-05-15T05:47:33.850Z,55.87
2019-05-15T05:48:33.839Z,54.94
2019-05-15T05:49:33.841Z,55.43
2019-05-15T05:50:33.832Z,54.72
2019-05-15T05:51:33.830Z,53.92
2019-05-15T05:52:33.790Z,55.66
2019-05-15T05:53:33.782Z,54.94
2019-05-15T05:54:33.777Z,54.72
2019-05-15T05:55:33.807Z,54.69
2019-05-15T05:56:33.757Z,53.66
2019-05-15T05:57:33.762Z,53.64
2019-05-15T05:58:33.744Z,53.64
2019-05-15T05:59:34.422Z,53.66
2019-05-15T06:00:33.703Z,52.51
2019-05-15T06:01:37.060Z,52.84
2019-05-15T06:02:46.559Z,52.01
2019-05-15T06:03:34.683Z,52.81
2019-05-15T06:04:33.667Z,52.64
2019-05-15T06:05:33.657Z,52.71
2019-05-15T06:06:33.654Z,52.51
2019-05-15T06:07:35.398Z,52.30
2019-05-15T06:08:33.637Z,53.02
2019-05-15T06:09:33.619Z,52.64
2019-05-15T06:10:33.603Z,52.30
2019-05-15T06:11:33.626Z,51.68
2019-05-15T06:12:33.576Z,52.28
2019-05-15T06:13:33.578Z,52.07
2019-05-15T06:14:33.554Z,51.97
2019-05-15T06:15:33.544Z,51.95
2019-05-15T06:16:33.555Z,50.92
2019-05-15T06:17:33.527Z,50.90
2019-05-15T06:18:33.504Z,50.69
2019-05-15T06:19:33.501Z,51.51
2019-05-15T06:20:33.500Z,50.99
2019-05-15T06:21:33.498Z,51.39
2019-05-15T06:22:33.473Z,50.67
2019-05-15T06:23:35.653Z,50.36
2019-05-15T06:24:33.440Z,50.36
2019-05-15T06:25:33.437Z,50.36
2019-05-15T06:26:33.433Z,50.44
2019-05-15T06:27:33.410Z,49.82
2019-05-15T06:28:33.405Z,48.49
2019-05-15T06:29:33.411Z,49.49
2019-05-15T06:30:33.387Z,48.77
2019-05-15T06:31:33.382Z,48.96
2019-05-15T06:32:33.351Z,48.14
2019-05-15T06:33:33.347Z,48.52
2019-05-15T06:34:33.334Z,48.19
2019-05-15T06:35:33.337Z,46.92
2019-05-15T06:36:33.335Z,45.76
2019-05-15T06:37:33.305Z,45.40
2019-05-15T06:38:33.282Z,43.63
2019-05-15T06:39:33.270Z,41.45
2019-05-15T06:40:33.294Z,41.84
2019-05-15T06:41:33.984Z,40.88
2019-05-15T06:42:33.259Z,39.83
2019-05-15T06:43:33.258Z,39.06
2019-05-15T06:44:33.220Z,37.37
2019-05-15T06:45:33.197Z,36.07
2019-05-15T06:46:33.217Z,34.42
2019-05-15T06:47:33.192Z,32.47
2019-05-15T06:48:33.192Z,32.69
2019-05-15T06:49:33.174Z,32.05
2019-05-15T06:50:33.157Z,31.63
2019-05-15T06:51:33.152Z,31.60
2019-05-15T06:52:33.144Z,30.27
2019-05-15T06:53:33.137Z,29.22
2019-05-15T06:54:33.121Z,29.29
2019-05-15T06:55:33.105Z,27.76
2019-05-15T06:56:33.102Z,27.04
2019-05-15T06:57:33.085Z,26.95
2019-05-15T06:58:33.073Z,27.58
2019-05-15T06:59:33.075Z,27.17
2019-05-15T07:00:33.064Z,27.15
2019-05-15T07:01:33.064Z,25.83
2019-05-15T07:02:33.024Z,26.17
2019-05-15T07:03:33.037Z,26.34
2019-05-15T07:04:33.007Z,26.15
2019-05-15T07:05:32.990Z,26.25
2019-05-15T07:06:33.003Z,25.23
2019-05-15T07:07:32.981Z,25.46
2019-05-15T07:08:32.955Z,26.98
2019-05-15T07:09:32.942Z,27.24
2019-05-15T07:10:32.957Z,29.46
2019-05-15T07:11:32.938Z,28.97
2019-05-15T07:12:32.921Z,30.44
2019-05-15T07:13:32.907Z,30.79
2019-05-15T07:14:32.897Z,32.87
2019-05-15T07:15:32.913Z,33.09
2019-05-15T07:16:32.877Z,33.78
2019-05-15T07:17:32.866Z,33.39
2019-05-15T07:18:32.855Z,34.01
2019-05-15T07:19:32.841Z,33.91
2019-05-15T07:20:32.841Z,34.64
2019-05-15T07:21:32.824Z,34.84
2019-05-15T07:22:32.825Z,34.23
2019-05-15T07:23:32.796Z,34.43
2019-05-15T07:24:32.787Z,34.42
2019-05-15T07:25:32.780Z,33.81
2019-05-15T07:26:32.763Z,33.83
2019-05-15T07:27:32.779Z,33.74
2019-05-15T07:28:32.735Z,32.93
2019-05-15T07:29:32.722Z,32.86
2019-05-15T07:30:32.712Z,32.86
2019-05-15T07:31:32.708Z,32.35
2019-05-15T07:32:32.717Z,31.61
2019-05-15T07:33:39.431Z,31.32
2019-05-15T07:34:33.697Z,32.03
2019-05-15T07:35:32.700Z,31.24
2019-05-15T07:36:32.653Z,31.45
2019-05-15T07:37:32.651Z,32.47
2019-05-15T07:38:32.640Z,31.54
2019-05-15T07:39:32.631Z,30.99
2019-05-15T07:40:32.613Z,29.61
2019-05-15T07:41:32.606Z,27.36
2019-05-15T07:42:32.599Z,27.77
2019-05-15T07:43:32.577Z,25.62
2019-05-15T07:44:32.577Z,26.35
2019-05-15T07:45:32.563Z,27.38
2019-05-15T07:46:32.550Z,27.50
2019-05-15T07:47:32.554Z,27.72
2019-05-15T07:48:32.533Z,28.03
2019-05-15T07:49:32.512Z,27.42
2019-05-15T07:50:32.508Z,26.29
2019-05-15T07:51:32.504Z,26.42
2019-05-15T07:52:32.502Z,26.84
2019-05-15T07:53:32.472Z,27.44
2019-05-15T07:54:32.447Z,27.75
2019-05-15T07:55:32.449Z,27.55
2019-05-15T07:56:32.441Z,27.44
2019-05-15T07:57:32.438Z,27.84
2019-05-15T07:58:32.422Z,26.29
2019-05-15T07:59:32.415Z,26.17
2019-05-15T08:00:32.388Z,25.45
2019-05-15T08:01:32.392Z,25.12
2019-05-15T08:02:32.379Z,23.49
2019-05-15T08:03:32.361Z,23.38
2019-05-15T08:04:33.008Z,23.89
2019-05-15T08:05:32.349Z,23.38
2019-05-15T08:06:32.353Z,23.38
2019-05-15T08:07:32.338Z,23.39
2019-05-15T08:08:32.305Z,24.41
2019-05-15T08:09:32.292Z,23.80
2019-05-15T08:10:32.292Z,24.01
2019-05-15T08:11:32.279Z,24.91
2019-05-15T08:12:32.274Z,24.30
2019-05-15T08:13:32.244Z,25.13
2019-05-15T08:14:32.261Z,25.43
2019-05-15T08:15:32.224Z,25.54
2019-05-15T08:16:32.221Z,24.85
2019-05-15T08:17:32.232Z,26.15
2019-05-15T08:18:32.205Z,25.73
2019-05-15T08:19:32.190Z,25.54
2019-05-15T08:20:32.177Z,25.20
2019-05-15T08:21:32.158Z,24.17
2019-05-15T08:22:32.156Z,23.94
2019-05-15T08:23:32.148Z,22.41
2019-05-15T08:24:32.142Z,23.11
2019-05-15T08:25:35.329Z,22.60
2019-05-15T08:26:32.108Z,23.11
2019-05-15T08:27:32.939Z,22.92
2019-05-15T08:28:32.095Z,24.22
2019-05-15T08:29:32.085Z,22.91
2019-05-15T08:30:32.080Z,22.61
2019-05-15T08:31:32.063Z,23.55
2019-05-15T08:32:32.070Z,25.31
2019-05-15T08:33:32.033Z,26.25
2019-05-15T08:34:32.018Z,26.27
2019-05-15T08:35:32.010Z,27.78
2019-05-15T08:36:32.013Z,27.28
2019-05-15T08:37:32.005Z,27.48
2019-05-15T08:38:31.996Z,27.18
2019-05-15T08:39:31.973Z,26.25
2019-05-15T08:40:31.960Z,26.04
2019-05-15T08:41:31.950Z,26.26
2019-05-15T08:42:32.364Z,26.23
2019-05-15T08:43:31.931Z,25.93
2019-05-15T08:44:31.914Z,26.33
2019-05-15T08:45:31.903Z,25.82
2019-05-15T08:46:31.883Z,26.32
2019-05-15T08:47:31.897Z,25.82
2019-05-15T08:48:32.893Z,25.61
2019-05-15T08:49:31.867Z,25.92
2019-05-15T08:50:31.882Z,25.58
2019-05-15T08:51:31.851Z,24.23
2019-05-15T08:52:31.838Z,23.83
2019-05-15T08:53:31.814Z,24.24
2019-05-15T08:54:31.799Z,24.24
2019-05-15T08:55:31.790Z,24.37
2019-05-15T08:56:31.785Z,25.31
2019-05-15T08:57:31.790Z,25.84
2019-05-15T08:58:31.748Z,26.35
2019-05-15T08:59:31.739Z,25.84
2019-05-15T09:00:31.738Z,25.73
2019-05-15T09:01:31.729Z,25.82
2019-05-15T09:02:31.751Z,25.71
2019-05-15T09:03:31.712Z,25.52
2019-05-15T09:04:34.988Z,25.40
2019-05-15T09:05:31.680Z,25.27
2019-05-15T09:06:31.674Z,24.27
2019-05-15T09:07:31.729Z,24.17
2019-05-15T09:08:31.743Z,23.94
2019-05-15T09:09:31.648Z,23.62
2019-05-15T09:10:31.634Z,22.71
2019-05-15T09:11:31.626Z,22.49
2019-05-15T09:12:31.610Z,21.99
2019-05-15T09:13:31.612Z,21.90
2019-05-15T09:14:31.600Z,22.69
2019-05-15T09:15:31.582Z,21.62
2019-05-15T09:16:31.559Z,19.57
2019-05-15T09:17:31.558Z,19.81
2019-05-15T09:18:31.558Z,20.97
2019-05-15T09:19:31.536Z,21.60
2019-05-15T09:20:31.529Z,22.42
2019-05-15T09:21:31.518Z,22.71
2019-05-15T09:22:31.508Z,21.37
2019-05-15T09:23:31.533Z,21.37
2019-05-15T09:24:31.479Z,21.15
2019-05-15T09:25:31.464Z,20.92
2019-05-15T09:26:31.457Z,19.96
2019-05-15T09:27:31.440Z,19.46
2019-05-15T09:28:31.464Z,18.82
2019-05-15T09:29:31.432Z,18.41
2019-05-15T09:30:31.422Z,18.44
2019-05-15T09:31:31.419Z,18.79
2019-05-15T09:32:31.456Z,19.70
2019-05-15T09:33:31.401Z,19.78
2019-05-15T09:34:46.667Z,19.26
2019-05-15T09:35:32.377Z,19.34
2019-05-15T09:36:31.349Z,18.32
2019-05-15T09:37:33.687Z,18.73
2019-05-15T09:38:31.339Z,19.25
2019-05-15T09:39:31.313Z,19.48
2019-05-15T09:40:42.424Z,21.03
2019-05-15T09:41:32.294Z,21.55
2019-05-15T09:42:31.291Z,22.66
2019-05-15T09:43:31.283Z,22.27
2019-05-15T09:44:31.271Z,22.88
2019-05-15T09:45:31.251Z,22.78
2019-05-15T09:46:31.250Z,22.59
2019-05-15T09:47:31.271Z,22.71
2019-05-15T09:48:31.231Z,23.73
2019-05-15T09:49:31.213Z,23.54
2019-05-15T09:50:31.203Z,23.83
2019-05-15T09:51:31.186Z,24.03
2019-05-15T09:52:31.195Z,24.43
2019-05-15T09:53:31.186Z,24.44
2019-05-15T09:54:31.165Z,24.13
2019-05-15T09:55:31.154Z,23.93
2019-05-15T09:56:31.136Z,24.94
2019-05-15T09:57:31.130Z,24.13
2019-05-15T09:58:31.129Z,24.02
2019-05-15T09:59:31.102Z,24.32
2019-05-15T10:00:31.131Z,23.52
2019-05-15T10:01:31.093Z,24.22
2019-05-15T10:02:31.068Z,23.93
2019-05-15T10:03:31.069Z,25.25
2019-05-15T10:04:31.058Z,25.78
2019-05-15T10:05:31.054Z,25.68
2019-05-15T10:06:31.036Z,26.29
2019-05-15T10:07:31.022Z,26.51
2019-05-15T10:08:31.049Z,26.64
2019-05-15T10:09:30.992Z,27.64
2019-05-15T10:10:30.982Z,27.56
2019-05-15T10:11:30.978Z,28.17
2019-05-15T10:12:34.821Z,28.58
2019-05-15T10:13:30.971Z,28.36
2019-05-15T10:14:30.954Z,27.15
2019-05-15T10:15:30.936Z,27.44
2019-05-15T10:16:30.924Z,27.55
2019-05-15T10:17:30.909Z,27.14
2019-05-15T10:18:30.922Z,27.45
2019-05-15T10:19:30.897Z,28.77
2019-05-15T10:20:30.881Z,28.67
2019-05-15T10:21:32.584Z,28.56
2019-05-15T10:22:30.856Z,27.86
2019-05-15T10:23:30.850Z,27.66
2019-05-15T10:24:30.842Z,27.44
2019-05-15T10:25:30.823Z,28.58
2019-05-15T10:26:30.816Z,27.84
2019-05-15T10:27:30.800Z,27.34
2019-05-15T10:28:30.803Z,27.45
2019-05-15T10:29:30.774Z,28.25
2019-05-15T10:30:30.761Z,28.15
2019-05-15T10:31:30.768Z,28.34
2019-05-15T10:32:30.752Z,28.23
2019-05-15T10:33:30.733Z,27.96
2019-05-15T10:34:30.731Z,29.16
2019-05-15T10:35:31.807Z,28.96
2019-05-15T10:36:30.702Z,28.84
2019-05-15T10:37:30.687Z,29.04
2019-05-15T10:38:30.712Z,28.14
2019-05-15T10:39:30.679Z,28.14
2019-05-15T10:40:30.648Z,28.34
2019-05-15T10:41:30.644Z,29.36
2019-05-15T10:42:30.633Z,29.17
2019-05-15T10:43:30.621Z,28.77
2019-05-15T10:44:30.627Z,28.87
2019-05-15T10:45:30.609Z,29.99
2019-05-15T10:46:30.587Z,30.50
2019-05-15T10:47:30.581Z,30.58
2019-05-15T10:48:30.556Z,30.70
2019-05-15T10:49:30.559Z,30.70
2019-05-15T10:50:30.544Z,30.62
2019-05-15T10:51:30.548Z,30.91
2019-05-15T10:52:30.513Z,30.82
2019-05-15T10:53:30.504Z,31.42
2019-05-15T10:54:30.527Z,31.54
2019-05-15T10:55:30.489Z,30.52
2019-05-15T10:56:30.489Z,30.73
2019-05-15T10:57:30.473Z,30.71
2019-05-15T10:58:30.456Z,30.21
2019-05-15T10:59:30.459Z,29.89
2019-05-15T11:00:30.429Z,30.30
2019-05-15T11:01:30.416Z,31.39
2019-05-15T11:02:30.416Z,29.98
2019-05-15T11:03:30.396Z,29.88
2019-05-15T11:04:30.408Z,29.78
2019-05-15T11:05:40.648Z,30.70
2019-05-15T11:06:31.365Z,31.73
2019-05-15T11:07:30.356Z,31.05
2019-05-15T11:08:30.351Z,32.35
2019-05-15T11:09:30.359Z,32.38
2019-05-15T11:10:30.324Z,32.79
2019-05-15T11:11:30.337Z,32.70
2019-05-15T11:12:30.294Z,32.61
2019-05-15T11:13:30.282Z,33.22
2019-05-15T11:14:30.303Z,32.22
2019-05-15T11:15:30.263Z,33.32
2019-05-15T11:16:30.265Z,33.32
2019-05-15T11:17:31.536Z,32.71
2019-05-15T11:18:30.738Z,33.44
2019-05-15T11:19:35.916Z,33.32
2019-05-15T11:20:31.211Z,33.03
2019-05-15T11:21:30.198Z,33.35
2019-05-15T11:22:30.205Z,33.25
2019-05-15T11:23:30.183Z,33.54
2019-05-15T11:24:32.397Z,33.65
2019-05-15T11:25:30.245Z,33.33
2019-05-15T11:26:33.469Z,33.13
2019-05-15T11:27:31.323Z,33.01
2019-05-15T11:28:32.327Z,33.01
2019-05-15T11:29:30.129Z,33.62
2019-05-15T11:30:30.119Z,33.52
2019-05-15T11:31:30.093Z,33.12
2019-05-15T11:32:30.077Z,33.44
2019-05-15T11:33:30.068Z,32.73
2019-05-15T11:34:30.073Z,32.82
2019-05-15T11:35:30.050Z,32.82
2019-05-15T11:36:30.041Z,32.82
2019-05-15T11:37:30.029Z,32.53
2019-05-15T11:38:30.008Z,33.44
2019-05-15T11:39:30.040Z,31.70
2019-05-15T11:40:30.015Z,32.22
2019-05-15T11:41:30.011Z,31.90
2019-05-15T11:42:29.968Z,32.20
2019-05-15T11:43:29.960Z,32.41
2019-05-15T11:44:30.551Z,31.68
2019-05-15T11:45:29.942Z,31.55
2019-05-15T11:46:29.954Z,31.23
2019-05-15T11:47:29.912Z,30.63
2019-05-15T11:48:30.233Z,30.09
2019-05-15T11:49:29.945Z,30.47
2019-05-15T11:50:29.892Z,29.44
2019-05-15T11:51:29.870Z,29.04
2019-05-15T11:52:29.867Z,28.84
2019-05-15T11:53:29.849Z,29.35
2019-05-15T11:54:29.838Z,29.02
2019-05-15T11:55:29.839Z,28.38
2019-05-15T11:56:29.852Z,27.25
2019-05-15T11:57:42.591Z,26.23
2019-05-15T11:58:30.790Z,27.14
2019-05-15T11:59:30.217Z,26.02
2019-05-15T12:00:30.433Z,26.01
2019-05-15T12:01:29.762Z,25.71
2019-05-15T12:02:29.765Z,25.92
2019-05-15T12:03:29.742Z,25.82
2019-05-15T12:04:33.768Z,26.33
2019-05-15T12:05:29.726Z,27.15
2019-05-15T12:06:29.694Z,27.35
2019-05-15T12:07:29.690Z,27.25
2019-05-15T12:08:29.683Z,27.17
2019-05-15T12:09:29.690Z,27.87
2019-05-15T12:10:29.670Z,27.67
2019-05-15T12:11:36.628Z,27.09
2019-05-15T12:12:32.049Z,28.83
2019-05-15T12:13:29.629Z,28.64
2019-05-15T12:14:29.867Z,29.06
2019-05-15T12:15:29.618Z,29.46
2019-05-15T12:16:29.604Z,29.26
2019-05-15T12:17:29.580Z,29.68
2019-05-15T12:18:29.567Z,30.48
2019-05-15T12:19:29.560Z,30.07
2019-05-15T12:20:29.561Z,29.78
2019-05-15T12:21:29.544Z,29.66
2019-05-15T12:22:29.525Z,30.27
2019-05-15T12:23:29.583Z,29.55
2019-05-15T12:24:35.339Z,29.36
2019-05-15T12:25:31.976Z,30.15
2019-05-15T12:26:29.563Z,29.35
2019-05-15T12:27:29.498Z,29.35
2019-05-15T12:28:29.785Z,29.14
2019-05-15T12:29:29.462Z,29.04
2019-05-15T12:30:29.769Z,29.26
2019-05-15T12:31:29.423Z,29.46
2019-05-15T12:33:30.422Z,29.80
2019-05-15T12:34:29.406Z,30.21
2019-05-15T12:35:29.701Z,30.93
2019-05-15T12:37:30.358Z,30.84
2019-05-15T12:38:29.353Z,31.05
2019-05-15T12:39:30.367Z,30.93
2019-05-15T13:00:30.108Z,30.74
2019-05-15T13:01:29.560Z,30.44
2019-05-15T13:02:29.082Z,31.05
2019-05-15T13:03:29.189Z,30.74
2019-05-15T13:04:29.066Z,30.93
2019-05-15T13:05:32.306Z,30.13
2019-05-15T13:06:29.056Z,30.04
2019-05-15T13:07:29.028Z,29.73
2019-05-15T13:08:29.291Z,30.54
2019-05-15T13:09:29.003Z,29.82
2019-05-15T13:10:29.002Z,30.83
2019-05-15T13:11:28.984Z,31.05
2019-05-15T13:12:29.037Z,30.84
2019-05-15T13:13:28.971Z,31.16
2019-05-15T13:14:28.953Z,31.78